NCAR-RAP Real-Time Weather Data

Output produced by METARs form (12 August 2020  18:25 UTC)
found at http://weather.rap.ucar.edu/surface/
 
 
RJCC 121800Z 10008KT 9999 FEW030 BKN130 21/20 Q1004 RMK 1CU030 5AC130 A2966
 
 
 
 
 
 
 
 
 
 
 
RJSM 121800Z VRB01KT 9999 FEW030 24/20 Q1007